sensor_id;sensor_type;location;lat;lon;timestamp;P1;durP1;ratioP1;P2;durP2;ratioP2
63688;SDS011;54895;40.928;14.480;2023-09-19T00:01:40;29.25;;;10.63;;
63688;SDS011;54895;40.928;14.480;2023-09-19T00:04:07;24.98;;;10.05;;
63688;SDS011;54895;40.928;14.480;2023-09-19T00:06:36;19.13;;;8.70;;
63688;SDS011;54895;40.928;14.480;2023-09-19T00:09:03;20.63;;;10.35;;
63688;SDS011;54895;40.928;14.480;2023-09-19T00:11:30;23.13;;;9.20;;
63688;SDS011;54895;40.928;14.480;2023-09-19T00:13:57;18.17;;;9.02;;
63688;SDS011;54895;40.928;14.480;2023-09-19T00:16:26;20.08;;;9.43;;
63688;SDS011;54895;40.928;14.480;2023-09-19T00:18:53;21.70;;;9.38;;
63688;SDS011;54895;40.928;14.480;2023-09-19T00:21:21;17.42;;;8.85;;
63688;SDS011;54895;40.928;14.480;2023-09-19T00:23:48;21.20;;;9.30;;
63688;SDS011;54895;40.928;14.480;2023-09-19T00:26:15;18.73;;;8.90;;
63688;SDS011;54895;40.928;14.480;2023-09-19T00:28:47;17.60;;;8.27;;
63688;SDS011;54895;40.928;14.480;2023-09-19T00:31:14;23.52;;;10.73;;
63688;SDS011;54895;40.928;14.480;2023-09-19T00:33:40;17.98;;;10.25;;
63688;SDS011;54895;40.928;14.480;2023-09-19T00:36:07;17.27;;;8.98;;
63688;SDS011;54895;40.928;14.480;2023-09-19T00:38:33;17.98;;;7.50;;
63688;SDS011;54895;40.928;14.480;2023-09-19T00:41:00;14.07;;;7.20;;
63688;SDS011;54895;40.928;14.480;2023-09-19T00:43:26;17.45;;;7.28;;
63688;SDS011;54895;40.928;14.480;2023-09-19T00:45:54;16.65;;;7.00;;
63688;SDS011;54895;40.928;14.480;2023-09-19T00:48:23;11.63;;;5.72;;
63688;SDS011;54895;40.928;14.480;2023-09-19T00:50:53;16.25;;;6.97;;
63688;SDS011;54895;40.928;14.480;2023-09-19T00:53:21;16.30;;;7.57;;
63688;SDS011;54895;40.928;14.480;2023-09-19T00:55:49;19.73;;;7.55;;
63688;SDS011;54895;40.928;14.480;2023-09-19T00:58:17;14.30;;;6.75;;
63688;SDS011;54895;40.928;14.480;2023-09-19T01:00:45;16.95;;;7.45;;
63688;SDS011;54895;40.928;14.480;2023-09-19T01:03:13;18.10;;;8.00;;
63688;SDS011;54895;40.928;14.480;2023-09-19T01:05:41;25.08;;;8.52;;
63688;SDS011;54895;40.928;14.480;2023-09-19T01:08:08;17.23;;;7.60;;
63688;SDS011;54895;40.928;14.480;2023-09-19T01:10:38;15.73;;;8.05;;
63688;SDS011;54895;40.928;14.480;2023-09-19T01:13:22;16.52;;;8.10;;
63688;SDS011;54895;40.928;14.480;2023-09-19T01:19:22;15.93;;;7.90;;
63688;SDS011;54895;40.928;14.480;2023-09-19T01:22:13;21.70;;;7.90;;
63688;SDS011;54895;40.928;14.480;2023-09-19T01:30:43;13.80;;;7.30;;
63688;SDS011;54895;40.928;14.480;2023-09-19T01:33:10;13.60;;;6.47;;
63688;SDS011;54895;40.928;14.480;2023-09-19T01:35:39;17.98;;;7.32;;
63688;SDS011;54895;40.928;14.480;2023-09-19T01:38:06;15.82;;;7.05;;
63688;SDS011;54895;40.928;14.480;2023-09-19T01:40:37;17.73;;;6.78;;
63688;SDS011;54895;40.928;14.480;2023-09-19T01:48:30;17.38;;;7.47;;
63688;SDS011;54895;40.928;14.480;2023-09-19T01:51:05;22.98;;;9.13;;
63688;SDS011;54895;40.928;14.480;2023-09-19T01:59:43;28.75;;;9.23;;
63688;SDS011;54895;40.928;14.480;2023-09-19T02:02:17;34.10;;;11.00;;
63688;SDS011;54895;40.928;14.480;2023-09-19T02:04:47;37.80;;;10.30;;
63688;SDS011;54895;40.928;14.480;2023-09-19T02:07:14;53.63;;;12.75;;
63688;SDS011;54895;40.928;14.480;2023-09-19T02:09:41;54.60;;;11.23;;
63688;SDS011;54895;40.928;14.480;2023-09-19T02:12:08;42.10;;;9.63;;
63688;SDS011;54895;40.928;14.480;2023-09-19T02:14:35;24.98;;;9.13;;
63688;SDS011;54895;40.928;14.480;2023-09-19T02:17:03;24.80;;;7.80;;
63688;SDS011;54895;40.928;14.480;2023-09-19T02:19:33;26.70;;;8.23;;
63688;SDS011;54895;40.928;14.480;2023-09-19T02:22:00;20.10;;;7.70;;
63688;SDS011;54895;40.928;14.480;2023-09-19T02:24:29;15.88;;;7.07;;
63688;SDS011;54895;40.928;14.480;2023-09-19T02:26:55;18.48;;;7.35;;
63688;SDS011;54895;40.928;14.480;2023-09-19T02:29:23;15.10;;;7.05;;
63688;SDS011;54895;40.928;14.480;2023-09-19T02:31:50;20.60;;;7.47;;
63688;SDS011;54895;40.928;14.480;2023-09-19T02:34:17;16.77;;;7.43;;
63688;SDS011;54895;40.928;14.480;2023-09-19T02:36:44;22.80;;;8.95;;
63688;SDS011;54895;40.928;14.480;2023-09-19T02:39:10;27.02;;;9.57;;
63688;SDS011;54895;40.928;14.480;2023-09-19T02:41:37;16.80;;;7.95;;
63688;SDS011;54895;40.928;14.480;2023-09-19T02:44:04;15.70;;;7.00;;
63688;SDS011;54895;40.928;14.480;2023-09-19T02:46:34;11.60;;;6.72;;
63688;SDS011;54895;40.928;14.480;2023-09-19T02:49:03;12.68;;;6.95;;
63688;SDS011;54895;40.928;14.480;2023-09-19T02:51:32;11.52;;;6.20;;
63688;SDS011;54895;40.928;14.480;2023-09-19T02:54:00;13.50;;;5.75;;
63688;SDS011;54895;40.928;14.480;2023-09-19T02:56:28;12.02;;;5.35;;
63688;SDS011;54895;40.928;14.480;2023-09-19T02:58:56;13.35;;;5.53;;
63688;SDS011;54895;40.928;14.480;2023-09-19T03:01:23;12.77;;;5.53;;
63688;SDS011;54895;40.928;14.480;2023-09-19T03:03:50;12.50;;;6.00;;
63688;SDS011;54895;40.928;14.480;2023-09-19T03:06:17;12.35;;;5.65;;
63688;SDS011;54895;40.928;14.480;2023-09-19T03:08:46;11.48;;;6.22;;
63688;SDS011;54895;40.928;14.480;2023-09-19T03:11:15;12.10;;;5.95;;
63688;SDS011;54895;40.928;14.480;2023-09-19T03:13:50;12.52;;;5.95;;
63688;SDS011;54895;40.928;14.480;2023-09-19T03:16:18;13.07;;;5.97;;
63688;SDS011;54895;40.928;14.480;2023-09-19T03:18:49;13.52;;;5.60;;
63688;SDS011;54895;40.928;14.480;2023-09-19T03:21:16;12.98;;;5.63;;
63688;SDS011;54895;40.928;14.480;2023-09-19T03:23:43;11.70;;;5.45;;
63688;SDS011;54895;40.928;14.480;2023-09-19T03:26:13;10.15;;;5.30;;
63688;SDS011;54895;40.928;14.480;2023-09-19T03:28:43;13.18;;;5.43;;
63688;SDS011;54895;40.928;14.480;2023-09-19T03:31:12;10.95;;;6.15;;
63688;SDS011;54895;40.928;14.480;2023-09-19T03:33:39;11.38;;;4.93;;
63688;SDS011;54895;40.928;14.480;2023-09-19T03:36:05;10.35;;;5.47;;
63688;SDS011;54895;40.928;14.480;2023-09-19T03:38:33;14.00;;;5.75;;
63688;SDS011;54895;40.928;14.480;2023-09-19T03:41:01;10.50;;;4.75;;
63688;SDS011;54895;40.928;14.480;2023-09-19T03:43:28;12.45;;;4.90;;
63688;SDS011;54895;40.928;14.480;2023-09-19T03:45:55;10.77;;;5.30;;
63688;SDS011;54895;40.928;14.480;2023-09-19T03:48:24;11.65;;;5.85;;
63688;SDS011;54895;40.928;14.480;2023-09-19T03:50:51;11.95;;;5.00;;
63688;SDS011;54895;40.928;14.480;2023-09-19T03:53:19;16.27;;;5.63;;
63688;SDS011;54895;40.928;14.480;2023-09-19T03:55:45;12.10;;;5.45;;
63688;SDS011;54895;40.928;14.480;2023-09-19T03:58:12;12.07;;;4.30;;
63688;SDS011;54895;40.928;14.480;2023-09-19T04:00:39;9.75;;;4.35;;
63688;SDS011;54895;40.928;14.480;2023-09-19T04:03:06;13.95;;;5.05;;
63688;SDS011;54895;40.928;14.480;2023-09-19T04:05:33;8.63;;;4.78;;
63688;SDS011;54895;40.928;14.480;2023-09-19T04:08:00;11.95;;;4.78;;
63688;SDS011;54895;40.928;14.480;2023-09-19T04:10:26;11.13;;;4.78;;
63688;SDS011;54895;40.928;14.480;2023-09-19T04:12:54;11.65;;;4.88;;
63688;SDS011;54895;40.928;14.480;2023-09-19T04:15:22;11.75;;;4.82;;
63688;SDS011;54895;40.928;14.480;2023-09-19T04:17:52;12.95;;;4.72;;
63688;SDS011;54895;40.928;14.480;2023-09-19T04:20:18;15.23;;;5.32;;
63688;SDS011;54895;40.928;14.480;2023-09-19T04:22:45;15.85;;;5.18;;
63688;SDS011;54895;40.928;14.480;2023-09-19T04:25:13;10.75;;;5.05;;
63688;SDS011;54895;40.928;14.480;2023-09-19T04:27:39;13.07;;;6.30;;
63688;SDS011;54895;40.928;14.480;2023-09-19T04:30:07;11.55;;;6.05;;
63688;SDS011;54895;40.928;14.480;2023-09-19T04:32:40;15.52;;;6.78;;
63688;SDS011;54895;40.928;14.480;2023-09-19T04:35:07;17.73;;;6.68;;
63688;SDS011;54895;40.928;14.480;2023-09-19T04:37:39;16.35;;;7.03;;
63688;SDS011;54895;40.928;14.480;2023-09-19T04:40:08;16.98;;;7.72;;
63688;SDS011;54895;40.928;14.480;2023-09-19T04:42:43;16.45;;;7.03;;
63688;SDS011;54895;40.928;14.480;2023-09-19T04:45:10;16.92;;;7.30;;
63688;SDS011;54895;40.928;14.480;2023-09-19T04:47:37;12.38;;;6.03;;
63688;SDS011;54895;40.928;14.480;2023-09-19T04:50:05;20.40;;;6.80;;
63688;SDS011;54895;40.928;14.480;2023-09-19T04:52:34;17.00;;;6.80;;
63688;SDS011;54895;40.928;14.480;2023-09-19T04:55:00;19.50;;;7.68;;
63688;SDS011;54895;40.928;14.480;2023-09-19T04:57:27;15.95;;;6.85;;
63688;SDS011;54895;40.928;14.480;2023-09-19T04:59:54;20.02;;;6.70;;
63688;SDS011;54895;40.928;14.480;2023-09-19T05:02:21;18.67;;;6.88;;
63688;SDS011;54895;40.928;14.480;2023-09-19T05:04:47;17.63;;;5.85;;
63688;SDS011;54895;40.928;14.480;2023-09-19T05:07:14;21.63;;;6.47;;
63688;SDS011;54895;40.928;14.480;2023-09-19T05:09:40;16.65;;;6.35;;
63688;SDS011;54895;40.928;14.480;2023-09-19T05:12:08;21.42;;;7.05;;
63688;SDS011;54895;40.928;14.480;2023-09-19T05:14:36;19.25;;;6.68;;
63688;SDS011;54895;40.928;14.480;2023-09-19T05:17:02;15.32;;;6.53;;
63688;SDS011;54895;40.928;14.480;2023-09-19T05:19:30;22.38;;;7.53;;
63688;SDS011;54895;40.928;14.480;2023-09-19T05:21:56;21.55;;;6.53;;
63688;SDS011;54895;40.928;14.480;2023-09-19T05:24:22;23.15;;;7.28;;
63688;SDS011;54895;40.928;14.480;2023-09-19T05:26:49;34.00;;;8.05;;
63688;SDS011;54895;40.928;14.480;2023-09-19T05:29:15;38.10;;;8.65;;
63688;SDS011;54895;40.928;14.480;2023-09-19T05:31:42;27.40;;;8.23;;
63688;SDS011;54895;40.928;14.480;2023-09-19T05:34:09;32.78;;;7.75;;
63688;SDS011;54895;40.928;14.480;2023-09-19T05:36:35;27.23;;;7.47;;
63688;SDS011;54895;40.928;14.480;2023-09-19T05:39:02;31.10;;;9.00;;
63688;SDS011;54895;40.928;14.480;2023-09-19T05:41:29;28.88;;;7.00;;
63688;SDS011;54895;40.928;14.480;2023-09-19T05:43:56;13.77;;;6.10;;
63688;SDS011;54895;40.928;14.480;2023-09-19T05:46:22;21.05;;;7.60;;
63688;SDS011;54895;40.928;14.480;2023-09-19T05:48:48;31.38;;;6.75;;
63688;SDS011;54895;40.928;14.480;2023-09-19T05:51:15;23.05;;;6.75;;
63688;SDS011;54895;40.928;14.480;2023-09-19T05:53:43;25.33;;;7.55;;
63688;SDS011;54895;40.928;14.480;2023-09-19T05:56:10;24.00;;;6.65;;
63688;SDS011;54895;40.928;14.480;2023-09-19T05:58:37;23.65;;;7.00;;
63688;SDS011;54895;40.928;14.480;2023-09-19T06:01:04;25.90;;;7.57;;
63688;SDS011;54895;40.928;14.480;2023-09-19T06:03:30;19.40;;;6.90;;
63688;SDS011;54895;40.928;14.480;2023-09-19T06:05:57;19.40;;;7.57;;
63688;SDS011;54895;40.928;14.480;2023-09-19T06:08:23;18.60;;;7.05;;
63688;SDS011;54895;40.928;14.480;2023-09-19T06:10:51;12.77;;;6.13;;
63688;SDS011;54895;40.928;14.480;2023-09-19T06:13:18;13.60;;;5.90;;
63688;SDS011;54895;40.928;14.480;2023-09-19T06:15:45;18.33;;;5.82;;
63688;SDS011;54895;40.928;14.480;2023-09-19T06:18:15;20.63;;;5.88;;
63688;SDS011;54895;40.928;14.480;2023-09-19T06:20:46;13.27;;;5.68;;
63688;SDS011;54895;40.928;14.480;2023-09-19T06:23:13;14.95;;;5.07;;
63688;SDS011;54895;40.928;14.480;2023-09-19T06:25:40;15.43;;;5.75;;
63688;SDS011;54895;40.928;14.480;2023-09-19T06:28:06;17.98;;;5.50;;
63688;SDS011;54895;40.928;14.480;2023-09-19T06:30:34;14.75;;;6.15;;
63688;SDS011;54895;40.928;14.480;2023-09-19T06:33:00;15.32;;;6.22;;
63688;SDS011;54895;40.928;14.480;2023-09-19T06:35:27;12.13;;;6.13;;
63688;SDS011;54895;40.928;14.480;2023-09-19T06:37:55;16.23;;;6.38;;
63688;SDS011;54895;40.928;14.480;2023-09-19T06:40:23;18.80;;;7.88;;
63688;SDS011;54895;40.928;14.480;2023-09-19T06:42:51;31.27;;;10.75;;
63688;SDS011;54895;40.928;14.480;2023-09-19T06:45:19;33.38;;;11.13;;
63688;SDS011;54895;40.928;14.480;2023-09-19T06:47:48;22.90;;;9.63;;
63688;SDS011;54895;40.928;14.480;2023-09-19T06:50:16;18.10;;;7.90;;
63688;SDS011;54895;40.928;14.480;2023-09-19T06:55:23;23.00;;;7.93;;
63688;SDS011;54895;40.928;14.480;2023-09-19T06:57:51;15.27;;;6.95;;
63688;SDS011;54895;40.928;14.480;2023-09-19T07:00:20;18.98;;;6.50;;
63688;SDS011;54895;40.928;14.480;2023-09-19T07:03:02;22.30;;;6.65;;
63688;SDS011;54895;40.928;14.480;2023-09-19T07:05:39;24.38;;;10.50;;
63688;SDS011;54895;40.928;14.480;2023-09-19T07:08:07;22.98;;;9.75;;
63688;SDS011;54895;40.928;14.480;2023-09-19T07:10:36;24.27;;;8.55;;
63688;SDS011;54895;40.928;14.480;2023-09-19T07:13:03;27.48;;;9.02;;
63688;SDS011;54895;40.928;14.480;2023-09-19T07:15:38;25.38;;;7.85;;
63688;SDS011;54895;40.928;14.480;2023-09-19T07:18:08;25.75;;;8.73;;
63688;SDS011;54895;40.928;14.480;2023-09-19T07:20:37;20.05;;;8.60;;
63688;SDS011;54895;40.928;14.480;2023-09-19T07:23:04;27.58;;;8.82;;
63688;SDS011;54895;40.928;14.480;2023-09-19T07:25:32;23.33;;;9.20;;
63688;SDS011;54895;40.928;14.480;2023-09-19T07:27:58;39.83;;;9.38;;
63688;SDS011;54895;40.928;14.480;2023-09-19T07:30:28;35.03;;;9.13;;
63688;SDS011;54895;40.928;14.480;2023-09-19T07:32:55;34.25;;;8.75;;
63688;SDS011;54895;40.928;14.480;2023-09-19T07:35:21;36.53;;;9.65;;
63688;SDS011;54895;40.928;14.480;2023-09-19T07:37:48;29.45;;;8.88;;
63688;SDS011;54895;40.928;14.480;2023-09-19T07:40:15;32.10;;;8.82;;
63688;SDS011;54895;40.928;14.480;2023-09-19T07:42:42;31.65;;;8.57;;
63688;SDS011;54895;40.928;14.480;2023-09-19T07:45:13;28.38;;;9.68;;
63688;SDS011;54895;40.928;14.480;2023-09-19T07:47:46;36.28;;;9.40;;
63688;SDS011;54895;40.928;14.480;2023-09-19T07:50:13;24.90;;;8.70;;
63688;SDS011;54895;40.928;14.480;2023-09-19T07:52:40;21.33;;;8.25;;
63688;SDS011;54895;40.928;14.480;2023-09-19T07:55:07;29.48;;;8.93;;
63688;SDS011;54895;40.928;14.480;2023-09-19T07:57:37;29.85;;;8.73;;
63688;SDS011;54895;40.928;14.480;2023-09-19T08:00:04;31.30;;;8.75;;
63688;SDS011;54895;40.928;14.480;2023-09-19T08:02:37;31.67;;;8.63;;
63688;SDS011;54895;40.928;14.480;2023-09-19T08:05:04;40.72;;;9.63;;
63688;SDS011;54895;40.928;14.480;2023-09-19T08:07:37;31.38;;;9.38;;
63688;SDS011;54895;40.928;14.480;2023-09-19T08:10:05;31.50;;;9.20;;
63688;SDS011;54895;40.928;14.480;2023-09-19T08:12:45;36.50;;;9.80;;
63688;SDS011;54895;40.928;14.480;2023-09-19T08:15:13;36.70;;;9.55;;
63688;SDS011;54895;40.928;14.480;2023-09-19T08:17:43;37.25;;;9.68;;
63688;SDS011;54895;40.928;14.480;2023-09-19T08:20:10;31.38;;;9.10;;
63688;SDS011;54895;40.928;14.480;2023-09-19T08:22:47;28.20;;;9.32;;
63688;SDS011;54895;40.928;14.480;2023-09-19T08:25:15;43.20;;;9.60;;
63688;SDS011;54895;40.928;14.480;2023-09-19T08:27:45;48.42;;;10.15;;
63688;SDS011;54895;40.928;14.480;2023-09-19T08:30:14;47.45;;;11.57;;
63688;SDS011;54895;40.928;14.480;2023-09-19T08:32:42;57.90;;;14.75;;
63688;SDS011;54895;40.928;14.480;2023-09-19T08:35:11;46.72;;;11.43;;
63688;SDS011;54895;40.928;14.480;2023-09-19T08:37:38;35.83;;;10.95;;
63688;SDS011;54895;40.928;14.480;2023-09-19T08:40:05;46.22;;;11.35;;
63688;SDS011;54895;40.928;14.480;2023-09-19T08:42:54;36.40;;;10.95;;
63688;SDS011;54895;40.928;14.480;2023-09-19T08:45:24;42.20;;;10.30;;
63688;SDS011;54895;40.928;14.480;2023-09-19T08:50:30;35.40;;;8.90;;
63688;SDS011;54895;40.928;14.480;2023-09-19T08:52:59;32.10;;;8.73;;
63688;SDS011;54895;40.928;14.480;2023-09-19T08:55:28;36.00;;;7.75;;
63688;SDS011;54895;40.928;14.480;2023-09-19T08:57:59;25.13;;;6.20;;
63688;SDS011;54895;40.928;14.480;2023-09-19T09:00:28;22.30;;;6.38;;
63688;SDS011;54895;40.928;14.480;2023-09-19T09:02:57;22.98;;;6.82;;
63688;SDS011;54895;40.928;14.480;2023-09-19T09:05:24;17.58;;;6.30;;
63688;SDS011;54895;40.928;14.480;2023-09-19T09:07:52;20.35;;;6.53;;
63688;SDS011;54895;40.928;14.480;2023-09-19T09:10:22;25.17;;;6.60;;
63688;SDS011;54895;40.928;14.480;2023-09-19T09:12:52;20.85;;;5.63;;
63688;SDS011;54895;40.928;14.480;2023-09-19T09:15:25;22.45;;;5.75;;
63688;SDS011;54895;40.928;14.480;2023-09-19T09:17:57;25.65;;;5.70;;
63688;SDS011;54895;40.928;14.480;2023-09-19T09:20:27;16.58;;;5.45;;
63688;SDS011;54895;40.928;14.480;2023-09-19T09:22:57;15.55;;;5.03;;
63688;SDS011;54895;40.928;14.480;2023-09-19T09:25:49;19.10;;;5.72;;
63688;SDS011;54895;40.928;14.480;2023-09-19T09:28:28;19.45;;;6.38;;
63688;SDS011;54895;40.928;14.480;2023-09-19T09:30:57;18.10;;;6.38;;
63688;SDS011;54895;40.928;14.480;2023-09-19T09:33:34;15.10;;;5.75;;
63688;SDS011;54895;40.928;14.480;2023-09-19T09:38:45;19.35;;;5.10;;
63688;SDS011;54895;40.928;14.480;2023-09-19T09:43:52;18.38;;;5.38;;
63688;SDS011;54895;40.928;14.480;2023-09-19T09:46:20;15.82;;;5.80;;
63688;SDS011;54895;40.928;14.480;2023-09-19T09:51:48;15.25;;;6.00;;
63688;SDS011;54895;40.928;14.480;2023-09-19T09:54:26;19.95;;;6.10;;
63688;SDS011;54895;40.928;14.480;2023-09-19T09:57:00;18.20;;;6.13;;
63688;SDS011;54895;40.928;14.480;2023-09-19T09:59:49;14.10;;;5.70;;
63688;SDS011;54895;40.928;14.480;2023-09-19T10:02:18;18.98;;;5.78;;
63688;SDS011;54895;40.928;14.480;2023-09-19T10:04:55;21.70;;;5.75;;
63688;SDS011;54895;40.928;14.480;2023-09-19T10:07:48;16.85;;;5.57;;
63688;SDS011;54895;40.928;14.480;2023-09-19T10:10:37;21.30;;;5.60;;
63688;SDS011;54895;40.928;14.480;2023-09-19T10:13:08;20.52;;;5.20;;
63688;SDS011;54895;40.928;14.480;2023-09-19T10:15:48;12.65;;;4.55;;
63688;SDS011;54895;40.928;14.480;2023-09-19T10:18:21;16.90;;;4.78;;
63688;SDS011;54895;40.928;14.480;2023-09-19T10:20:53;21.67;;;5.40;;
63688;SDS011;54895;40.928;14.480;2023-09-19T10:23:21;14.27;;;5.35;;
63688;SDS011;54895;40.928;14.480;2023-09-19T10:25:52;11.60;;;4.53;;
63688;SDS011;54895;40.928;14.480;2023-09-19T10:28:19;18.20;;;5.20;;
63688;SDS011;54895;40.928;14.480;2023-09-19T10:30:48;13.48;;;4.40;;
63688;SDS011;54895;40.928;14.480;2023-09-19T10:33:19;16.02;;;4.43;;
63688;SDS011;54895;40.928;14.480;2023-09-19T10:35:48;16.75;;;4.57;;
63688;SDS011;54895;40.928;14.480;2023-09-19T10:38:19;12.27;;;3.72;;
63688;SDS011;54895;40.928;14.480;2023-09-19T10:40:50;9.52;;;3.90;;
63688;SDS011;54895;40.928;14.480;2023-09-19T10:43:21;16.95;;;4.18;;
63688;SDS011;54895;40.928;14.480;2023-09-19T10:45:51;15.68;;;4.03;;
63688;SDS011;54895;40.928;14.480;2023-09-19T10:48:20;19.30;;;4.00;;
63688;SDS011;54895;40.928;14.480;2023-09-19T10:53:19;12.30;;;3.88;;
63688;SDS011;54895;40.928;14.480;2023-09-19T10:55:48;11.45;;;3.88;;
63688;SDS011;54895;40.928;14.480;2023-09-19T10:58:27;11.88;;;3.75;;
63688;SDS011;54895;40.928;14.480;2023-09-19T11:00:55;15.15;;;3.95;;
63688;SDS011;54895;40.928;14.480;2023-09-19T11:03:26;14.38;;;3.95;;
63688;SDS011;54895;40.928;14.480;2023-09-19T11:06:06;13.77;;;4.38;;
63688;SDS011;54895;40.928;14.480;2023-09-19T11:11:48;10.85;;;3.78;;
63688;SDS011;54895;40.928;14.480;2023-09-19T11:30:34;12.32;;;3.60;;
63688;SDS011;54895;40.928;14.480;2023-09-19T11:36:06;10.68;;;3.10;;
63688;SDS011;54895;40.928;14.480;2023-09-19T11:46:29;10.70;;;3.92;;
63688;SDS011;54895;40.928;14.480;2023-09-19T11:49:07;9.82;;;3.40;;
63688;SDS011;54895;40.928;14.480;2023-09-19T11:51:40;12.07;;;3.65;;
63688;SDS011;54895;40.928;14.480;2023-09-19T11:54:14;12.02;;;4.10;;
63688;SDS011;54895;40.928;14.480;2023-09-19T11:56:48;8.90;;;4.03;;
63688;SDS011;54895;40.928;14.480;2023-09-19T11:59:20;9.73;;;3.63;;
63688;SDS011;54895;40.928;14.480;2023-09-19T12:01:52;14.38;;;4.20;;
63688;SDS011;54895;40.928;14.480;2023-09-19T12:04:39;15.75;;;4.07;;
63688;SDS011;54895;40.928;14.480;2023-09-19T12:07:12;10.45;;;4.35;;
63688;SDS011;54895;40.928;14.480;2023-09-19T12:09:43;15.48;;;3.80;;
63688;SDS011;54895;40.928;14.480;2023-09-19T12:14:56;15.85;;;4.53;;
63688;SDS011;54895;40.928;14.480;2023-09-19T12:17:38;16.80;;;4.07;;
63688;SDS011;54895;40.928;14.480;2023-09-19T12:20:09;14.15;;;4.80;;
63688;SDS011;54895;40.928;14.480;2023-09-19T12:22:40;16.88;;;4.90;;
63688;SDS011;54895;40.928;14.480;2023-09-19T12:25:12;14.90;;;4.20;;
63688;SDS011;54895;40.928;14.480;2023-09-19T12:27:45;17.10;;;4.70;;
63688;SDS011;54895;40.928;14.480;2023-09-19T12:30:13;12.82;;;4.05;;
63688;SDS011;54895;40.928;14.480;2023-09-19T12:32:44;11.23;;;4.57;;
63688;SDS011;54895;40.928;14.480;2023-09-19T12:35:34;12.77;;;4.78;;
63688;SDS011;54895;40.928;14.480;2023-09-19T12:38:05;14.32;;;4.45;;
63688;SDS011;54895;40.928;14.480;2023-09-19T12:40:34;17.23;;;4.90;;
63688;SDS011;54895;40.928;14.480;2023-09-19T12:43:04;14.40;;;4.10;;
63688;SDS011;54895;40.928;14.480;2023-09-19T12:45:31;9.18;;;3.58;;
63688;SDS011;54895;40.928;14.480;2023-09-19T12:56:09;10.57;;;3.83;;
63688;SDS011;54895;40.928;14.480;2023-09-19T12:58:48;11.00;;;3.72;;
63688;SDS011;54895;40.928;14.480;2023-09-19T13:01:29;9.00;;;3.03;;
63688;SDS011;54895;40.928;14.480;2023-09-19T13:04:12;11.02;;;3.25;;
63688;SDS011;54895;40.928;14.480;2023-09-19T13:06:41;9.13;;;3.20;;
63688;SDS011;54895;40.928;14.480;2023-09-19T13:09:10;12.30;;;3.10;;
63688;SDS011;54895;40.928;14.480;2023-09-19T13:11:37;17.13;;;4.10;;
63688;SDS011;54895;40.928;14.480;2023-09-19T13:25:08;8.27;;;3.25;;
63688;SDS011;54895;40.928;14.480;2023-09-19T13:27:47;10.70;;;3.45;;
63688;SDS011;54895;40.928;14.480;2023-09-19T13:30:17;8.55;;;3.28;;
63688;SDS011;54895;40.928;14.480;2023-09-19T13:32:44;13.65;;;3.38;;
63688;SDS011;54895;40.928;14.480;2023-09-19T13:35:13;8.15;;;3.55;;
63688;SDS011;54895;40.928;14.480;2023-09-19T13:37:41;13.38;;;3.55;;
63688;SDS011;54895;40.928;14.480;2023-09-19T13:40:09;12.02;;;3.70;;
63688;SDS011;54895;40.928;14.480;2023-09-19T13:42:40;11.60;;;3.45;;
63688;SDS011;54895;40.928;14.480;2023-09-19T13:45:07;13.30;;;4.07;;
63688;SDS011;54895;40.928;14.480;2023-09-19T13:47:38;12.20;;;3.90;;
63688;SDS011;54895;40.928;14.480;2023-09-19T13:50:06;10.45;;;3.88;;
63688;SDS011;54895;40.928;14.480;2023-09-19T13:52:33;11.90;;;4.13;;
63688;SDS011;54895;40.928;14.480;2023-09-19T13:55:00;10.15;;;3.83;;
63688;SDS011;54895;40.928;14.480;2023-09-19T13:57:26;13.00;;;4.13;;
63688;SDS011;54895;40.928;14.480;2023-09-19T13:59:52;9.25;;;3.95;;
63688;SDS011;54895;40.928;14.480;2023-09-19T14:02:20;12.43;;;4.40;;
63688;SDS011;54895;40.928;14.480;2023-09-19T14:04:51;10.90;;;4.20;;
63688;SDS011;54895;40.928;14.480;2023-09-19T14:07:17;12.50;;;4.70;;
63688;SDS011;54895;40.928;14.480;2023-09-19T14:09:46;10.32;;;4.40;;
63688;SDS011;54895;40.928;14.480;2023-09-19T14:12:13;11.75;;;4.13;;
63688;SDS011;54895;40.928;14.480;2023-09-19T14:14:39;8.75;;;3.75;;
63688;SDS011;54895;40.928;14.480;2023-09-19T14:17:06;10.98;;;4.05;;
63688;SDS011;54895;40.928;14.480;2023-09-19T14:19:33;13.70;;;4.40;;
63688;SDS011;54895;40.928;14.480;2023-09-19T14:22:00;12.10;;;4.13;;
63688;SDS011;54895;40.928;14.480;2023-09-19T14:24:33;13.23;;;4.85;;
63688;SDS011;54895;40.928;14.480;2023-09-19T14:27:01;13.00;;;4.30;;
63688;SDS011;54895;40.928;14.480;2023-09-19T14:29:30;10.23;;;4.10;;
63688;SDS011;54895;40.928;14.480;2023-09-19T14:31:57;10.65;;;3.88;;
63688;SDS011;54895;40.928;14.480;2023-09-19T14:34:24;12.70;;;4.50;;
63688;SDS011;54895;40.928;14.480;2023-09-19T14:36:54;11.07;;;4.50;;
63688;SDS011;54895;40.928;14.480;2023-09-19T14:39:21;10.90;;;4.18;;
63688;SDS011;54895;40.928;14.480;2023-09-19T14:41:49;17.33;;;4.97;;
63688;SDS011;54895;40.928;14.480;2023-09-19T14:44:16;13.38;;;3.63;;
63688;SDS011;54895;40.928;14.480;2023-09-19T14:46:43;8.38;;;3.70;;
63688;SDS011;54895;40.928;14.480;2023-09-19T14:49:11;16.83;;;4.03;;
63688;SDS011;54895;40.928;14.480;2023-09-19T14:51:38;10.45;;;3.30;;
63688;SDS011;54895;40.928;14.480;2023-09-19T14:56:37;10.80;;;3.28;;
63688;SDS011;54895;40.928;14.480;2023-09-19T14:59:03;9.98;;;3.65;;
63688;SDS011;54895;40.928;14.480;2023-09-19T15:01:29;10.65;;;3.03;;
63688;SDS011;54895;40.928;14.480;2023-09-19T15:03:56;10.35;;;3.95;;
63688;SDS011;54895;40.928;14.480;2023-09-19T15:06:23;8.57;;;3.28;;
63688;SDS011;54895;40.928;14.480;2023-09-19T15:08:49;9.35;;;3.75;;
63688;SDS011;54895;40.928;14.480;2023-09-19T15:11:16;6.85;;;3.60;;
63688;SDS011;54895;40.928;14.480;2023-09-19T15:13:44;11.43;;;3.88;;
63688;SDS011;54895;40.928;14.480;2023-09-19T15:16:11;10.60;;;3.80;;
63688;SDS011;54895;40.928;14.480;2023-09-19T15:18:41;15.98;;;3.83;;
63688;SDS011;54895;40.928;14.480;2023-09-19T15:21:09;9.32;;;3.60;;
63688;SDS011;54895;40.928;14.480;2023-09-19T15:27:28;13.68;;;4.18;;
63688;SDS011;54895;40.928;14.480;2023-09-19T15:29:57;19.98;;;4.93;;
63688;SDS011;54895;40.928;14.480;2023-09-19T15:32:25;14.68;;;4.38;;
63688;SDS011;54895;40.928;14.480;2023-09-19T15:34:52;13.98;;;4.20;;
63688;SDS011;54895;40.928;14.480;2023-09-19T15:37:19;11.68;;;4.00;;
63688;SDS011;54895;40.928;14.480;2023-09-19T15:39:46;8.88;;;3.83;;
63688;SDS011;54895;40.928;14.480;2023-09-19T15:42:16;11.50;;;3.55;;
63688;SDS011;54895;40.928;14.480;2023-09-19T15:45:14;12.88;;;3.42;;
63688;SDS011;54895;40.928;14.480;2023-09-19T15:47:43;10.00;;;4.25;;
63688;SDS011;54895;40.928;14.480;2023-09-19T15:50:10;8.10;;;4.05;;
63688;SDS011;54895;40.928;14.480;2023-09-19T15:52:39;10.52;;;3.63;;
63688;SDS011;54895;40.928;14.480;2023-09-19T15:55:07;15.02;;;4.20;;
63688;SDS011;54895;40.928;14.480;2023-09-19T16:00:06;14.85;;;4.07;;
63688;SDS011;54895;40.928;14.480;2023-09-19T16:02:40;10.35;;;4.75;;
63688;SDS011;54895;40.928;14.480;2023-09-19T16:05:06;11.32;;;4.57;;
63688;SDS011;54895;40.928;14.480;2023-09-19T16:07:33;11.98;;;4.18;;
63688;SDS011;54895;40.928;14.480;2023-09-19T16:10:01;10.63;;;4.32;;
63688;SDS011;54895;40.928;14.480;2023-09-19T16:12:28;16.08;;;4.72;;